sensor_id;sensor_type;location;lat;lon;timestamp;pressure;altitude;pressure_sealevel;temperature;humidity
8717;BME280;4395;48.554;8.820;2023-07-31T00:01:34;96001.13;;;14.84;100.00
8717;BME280;4395;48.554;8.820;2023-07-31T00:03:37;95994.63;;;14.85;100.00
8717;BME280;4395;48.554;8.820;2023-07-31T00:05:40;96001.56;;;15.06;100.00
8717;BME280;4395;48.554;8.820;2023-07-31T00:07:43;95999.94;;;15.10;100.00
8717;BME280;4395;48.554;8.820;2023-07-31T00:09:47;95989.63;;;15.12;100.00
8717;BME280;4395;48.554;8.820;2023-07-31T00:11:48;95993.19;;;15.03;100.00
8717;BME280;4395;48.554;8.820;2023-07-31T00:13:52;95991.94;;;14.80;100.00
8717;BME280;4395;48.554;8.820;2023-07-31T00:15:55;96001.91;;;14.95;100.00
8717;BME280;4395;48.554;8.820;2023-07-31T00:17:58;96008.66;;;14.92;100.00
8717;BME280;4395;48.554;8.820;2023-07-31T00:20:03;96011.16;;;14.78;100.00
8717;BME280;4395;48.554;8.820;2023-07-31T00:22:06;96015.56;;;14.54;100.00
8717;BME280;4395;48.554;8.820;2023-07-31T00:24:08;95997.75;;;14.23;100.00
8717;BME280;4395;48.554;8.820;2023-07-31T00:26:12;95973.97;;;14.14;100.00
8717;BME280;4395;48.554;8.820;2023-07-31T00:28:15;96002.31;;;14.47;100.00
8717;BME280;4395;48.554;8.820;2023-07-31T00:30:18;96011.78;;;14.55;100.00
8717;BME280;4395;48.554;8.820;2023-07-31T00:32:21;95980.16;;;14.45;100.00
8717;BME280;4395;48.554;8.820;2023-07-31T00:34:24;96000.16;;;14.50;100.00
8717;BME280;4395;48.554;8.820;2023-07-31T00:36:27;96015.28;;;14.61;100.00
8717;BME280;4395;48.554;8.820;2023-07-31T00:38:29;96021.16;;;14.78;100.00
8717;BME280;4395;48.554;8.820;2023-07-31T00:40:35;96014.69;;;14.74;100.00
8717;BME280;4395;48.554;8.820;2023-07-31T00:42:39;96007.00;;;15.06;100.00
8717;BME280;4395;48.554;8.820;2023-07-31T00:44:42;95981.63;;;14.92;100.00
8717;BME280;4395;48.554;8.820;2023-07-31T00:46:45;96007.53;;;15.08;100.00
8717;BME280;4395;48.554;8.820;2023-07-31T00:48:48;96003.81;;;14.89;100.00
8717;BME280;4395;48.554;8.820;2023-07-31T00:50:50;96017.41;;;14.69;100.00
8717;BME280;4395;48.554;8.820;2023-07-31T00:52:53;96001.25;;;14.48;100.00
8717;BME280;4395;48.554;8.820;2023-07-31T00:54:56;96009.88;;;14.56;100.00
8717;BME280;4395;48.554;8.820;2023-07-31T00:56:59;96002.53;;;14.71;100.00
8717;BME280;4395;48.554;8.820;2023-07-31T00:59:04;96013.09;;;14.63;100.00
8717;BME280;4395;48.554;8.820;2023-07-31T01:01:07;96002.19;;;14.88;100.00
8717;BME280;4395;48.554;8.820;2023-07-31T01:03:10;96010.84;;;15.44;100.00
8717;BME280;4395;48.554;8.820;2023-07-31T01:05:14;96004.25;;;15.11;100.00
8717;BME280;4395;48.554;8.820;2023-07-31T01:07:20;96009.44;;;15.52;100.00
8717;BME280;4395;48.554;8.820;2023-07-31T01:09:30;96006.38;;;15.20;100.00
8717;BME280;4395;48.554;8.820;2023-07-31T01:11:43;95982.22;;;14.79;100.00
8717;BME280;4395;48.554;8.820;2023-07-31T01:13:49;95999.56;;;14.68;100.00
8717;BME280;4395;48.554;8.820;2023-07-31T01:15:53;95991.53;;;14.32;100.00
8717;BME280;4395;48.554;8.820;2023-07-31T01:17:56;95987.19;;;14.36;100.00
8717;BME280;4395;48.554;8.820;2023-07-31T01:20:02;95985.25;;;14.62;100.00
8717;BME280;4395;48.554;8.820;2023-07-31T01:22:20;95989.88;;;14.57;100.00
8717;BME280;4395;48.554;8.820;2023-07-31T01:24:30;95984.50;;;14.31;100.00
8717;BME280;4395;48.554;8.820;2023-07-31T01:26:40;95982.84;;;14.35;100.00
8717;BME280;4395;48.554;8.820;2023-07-31T01:28:52;95981.75;;;14.52;100.00
8717;BME280;4395;48.554;8.820;2023-07-31T01:30:58;95979.03;;;14.62;100.00
8717;BME280;4395;48.554;8.820;2023-07-31T01:33:03;95979.09;;;14.31;100.00
8717;BME280;4395;48.554;8.820;2023-07-31T01:35:09;95969.91;;;14.22;100.00
8717;BME280;4395;48.554;8.820;2023-07-31T01:37:12;95968.00;;;14.43;100.00
8717;BME280;4395;48.554;8.820;2023-07-31T01:39:15;95967.19;;;14.37;100.00
8717;BME280;4395;48.554;8.820;2023-07-31T01:41:18;95964.00;;;14.10;100.00
8717;BME280;4395;48.554;8.820;2023-07-31T01:43:23;95976.44;;;13.96;100.00
8717;BME280;4395;48.554;8.820;2023-07-31T01:45:25;95970.22;;;13.85;100.00
8717;BME280;4395;48.554;8.820;2023-07-31T01:47:28;95960.47;;;14.14;100.00
8717;BME280;4395;48.554;8.820;2023-07-31T01:49:31;95952.09;;;14.16;100.00
8717;BME280;4395;48.554;8.820;2023-07-31T01:51:35;95949.94;;;14.08;100.00
8717;BME280;4395;48.554;8.820;2023-07-31T01:53:37;95961.81;;;14.22;100.00
8717;BME280;4395;48.554;8.820;2023-07-31T01:55:40;95981.25;;;14.29;100.00
8717;BME280;4395;48.554;8.820;2023-07-31T01:57:43;95957.50;;;14.11;100.00
8717;BME280;4395;48.554;8.820;2023-07-31T01:59:46;95960.75;;;14.08;100.00
8717;BME280;4395;48.554;8.820;2023-07-31T02:01:49;95950.75;;;14.03;100.00
8717;BME280;4395;48.554;8.820;2023-07-31T02:03:55;95955.88;;;14.05;100.00
8717;BME280;4395;48.554;8.820;2023-07-31T02:05:58;95947.50;;;14.11;100.00
8717;BME280;4395;48.554;8.820;2023-07-31T02:07:59;95947.72;;;14.30;100.00
8717;BME280;4395;48.554;8.820;2023-07-31T02:10:06;95944.00;;;14.01;100.00
8717;BME280;4395;48.554;8.820;2023-07-31T02:12:10;95943.59;;;14.63;100.00
8717;BME280;4395;48.554;8.820;2023-07-31T02:14:12;95955.81;;;14.51;100.00
8717;BME280;4395;48.554;8.820;2023-07-31T02:16:17;95939.31;;;14.47;100.00
8717;BME280;4395;48.554;8.820;2023-07-31T02:18:20;95940.06;;;14.68;100.00
8717;BME280;4395;48.554;8.820;2023-07-31T02:20:23;95938.84;;;14.94;100.00
8717;BME280;4395;48.554;8.820;2023-07-31T02:22:26;95938.09;;;15.33;100.00
8717;BME280;4395;48.554;8.820;2023-07-31T02:24:30;95940.69;;;15.48;100.00
8717;BME280;4395;48.554;8.820;2023-07-31T02:26:33;95937.78;;;15.79;100.00
8717;BME280;4395;48.554;8.820;2023-07-31T02:28:36;95929.66;;;16.07;100.00
8717;BME280;4395;48.554;8.820;2023-07-31T02:30:39;95937.88;;;16.26;100.00
8717;BME280;4395;48.554;8.820;2023-07-31T02:32:44;95930.25;;;16.28;100.00
8717;BME280;4395;48.554;8.820;2023-07-31T02:34:47;95924.63;;;16.49;100.00
8717;BME280;4395;48.554;8.820;2023-07-31T02:36:51;95926.00;;;16.46;100.00
8717;BME280;4395;48.554;8.820;2023-07-31T02:38:54;95917.22;;;16.54;100.00
8717;BME280;4395;48.554;8.820;2023-07-31T02:40:57;95935.56;;;16.62;100.00
8717;BME280;4395;48.554;8.820;2023-07-31T02:43:01;95940.94;;;15.91;100.00
8717;BME280;4395;48.554;8.820;2023-07-31T02:45:05;95933.06;;;15.60;100.00
8717;BME280;4395;48.554;8.820;2023-07-31T02:47:08;95929.28;;;15.51;100.00
8717;BME280;4395;48.554;8.820;2023-07-31T02:49:13;95922.00;;;15.07;100.00
8717;BME280;4395;48.554;8.820;2023-07-31T02:51:14;95924.63;;;14.73;100.00
8717;BME280;4395;48.554;8.820;2023-07-31T02:53:17;95936.72;;;14.86;100.00
8717;BME280;4395;48.554;8.820;2023-07-31T02:55:20;95923.59;;;14.59;100.00
8717;BME280;4395;48.554;8.820;2023-07-31T02:57:23;95883.41;;;14.27;100.00
8717;BME280;4395;48.554;8.820;2023-07-31T02:59:27;95915.28;;;14.35;100.00
8717;BME280;4395;48.554;8.820;2023-07-31T03:01:30;95915.00;;;14.47;100.00
8717;BME280;4395;48.554;8.820;2023-07-31T03:03:33;95919.34;;;14.33;100.00
8717;BME280;4395;48.554;8.820;2023-07-31T03:05:38;95906.09;;;14.31;100.00
8717;BME280;4395;48.554;8.820;2023-07-31T03:07:40;95921.28;;;14.17;100.00
8717;BME280;4395;48.554;8.820;2023-07-31T03:09:42;95921.78;;;14.29;100.00
8717;BME280;4395;48.554;8.820;2023-07-31T03:11:45;95922.53;;;14.55;100.00
8717;BME280;4395;48.554;8.820;2023-07-31T03:13:48;95909.59;;;14.42;100.00
8717;BME280;4395;48.554;8.820;2023-07-31T03:15:51;95910.97;;;14.34;100.00
8717;BME280;4395;48.554;8.820;2023-07-31T03:17:54;95907.16;;;14.35;100.00
8717;BME280;4395;48.554;8.820;2023-07-31T03:19:57;95914.25;;;14.21;100.00
8717;BME280;4395;48.554;8.820;2023-07-31T03:22:01;95907.00;;;14.01;100.00
8717;BME280;4395;48.554;8.820;2023-07-31T03:24:04;95906.69;;;14.13;100.00
8717;BME280;4395;48.554;8.820;2023-07-31T03:26:07;95917.75;;;14.27;100.00
8717;BME280;4395;48.554;8.820;2023-07-31T03:28:09;95922.34;;;14.16;100.00
8717;BME280;4395;48.554;8.820;2023-07-31T03:30:12;95917.25;;;14.09;100.00
8717;BME280;4395;48.554;8.820;2023-07-31T03:32:15;95919.63;;;14.26;100.00
8717;BME280;4395;48.554;8.820;2023-07-31T03:34:18;95913.97;;;14.23;100.00
8717;BME280;4395;48.554;8.820;2023-07-31T03:36:22;95920.41;;;14.32;100.00
8717;BME280;4395;48.554;8.820;2023-07-31T03:38:27;95921.25;;;14.22;100.00
8717;BME280;4395;48.554;8.820;2023-07-31T03:40:29;95921.25;;;14.22;100.00
8717;BME280;4395;48.554;8.820;2023-07-31T03:42:34;95918.53;;;14.27;100.00
8717;BME280;4395;48.554;8.820;2023-07-31T03:44:36;95917.75;;;14.27;100.00
8717;BME280;4395;48.554;8.820;2023-07-31T03:46:39;95906.94;;;14.27;100.00
8717;BME280;4395;48.554;8.820;2023-07-31T03:48:43;95920.41;;;14.32;100.00
8717;BME280;4395;48.554;8.820;2023-07-31T03:50:45;95918.53;;;14.27;100.00
8717;BME280;4395;48.554;8.820;2023-07-31T03:52:48;95918.84;;;14.21;100.00
8717;BME280;4395;48.554;8.820;2023-07-31T03:54:52;95913.13;;;14.32;100.00
8717;BME280;4395;48.554;8.820;2023-07-31T03:56:55;95895.88;;;14.13;100.00
8717;BME280;4395;48.554;8.820;2023-07-31T03:58:57;95922.88;;;14.28;100.00
8717;BME280;4395;48.554;8.820;2023-07-31T04:01:00;95918.03;;;14.20;100.00
8717;BME280;4395;48.554;8.820;2023-07-31T04:03:03;95915.06;;;14.11;100.00
8717;BME280;4395;48.554;8.820;2023-07-31T04:05:06;95907.72;;;14.27;100.00
8717;BME280;4395;48.554;8.820;2023-07-31T04:07:09;95901.00;;;14.20;100.00
8717;BME280;4395;48.554;8.820;2023-07-31T04:09:11;95897.25;;;14.05;100.00
8717;BME280;4395;48.554;8.820;2023-07-31T04:11:15;95906.16;;;14.06;100.00
8717;BME280;4395;48.554;8.820;2023-07-31T04:13:18;95911.03;;;14.04;100.00
8717;BME280;4395;48.554;8.820;2023-07-31T04:15:20;95905.09;;;14.07;100.00
8717;BME280;4395;48.554;8.820;2023-07-31T04:17:23;95880.00;;;13.86;100.00
8717;BME280;4395;48.554;8.820;2023-07-31T04:19:26;95903.50;;;13.91;100.00
8717;BME280;4395;48.554;8.820;2023-07-31T04:21:29;95908.91;;;13.91;100.00
8717;BME280;4395;48.554;8.820;2023-07-31T04:23:32;95907.28;;;13.95;100.00
8717;BME280;4395;48.554;8.820;2023-07-31T04:25:34;95900.25;;;13.99;100.00
8717;BME280;4395;48.554;8.820;2023-07-31T04:27:40;95908.34;;;14.04;100.00
8717;BME280;4395;48.554;8.820;2023-07-31T04:29:43;95899.13;;;14.10;100.00
8717;BME280;4395;48.554;8.820;2023-07-31T04:31:48;95901.78;;;14.25;100.00
8717;BME280;4395;48.554;8.820;2023-07-31T04:33:51;95902.56;;;14.41;100.00
8717;BME280;4395;48.554;8.820;2023-07-31T04:35:53;95907.66;;;14.58;100.00
8717;BME280;4395;48.554;8.820;2023-07-31T04:37:56;95911.41;;;14.67;100.00
8717;BME280;4395;48.554;8.820;2023-07-31T04:39:59;95902.41;;;14.76;100.00
8717;BME280;4395;48.554;8.820;2023-07-31T04:42:02;95892.91;;;14.84;100.00
8717;BME280;4395;48.554;8.820;2023-07-31T04:44:06;95899.44;;;14.78;100.00
8717;BME280;4395;48.554;8.820;2023-07-31T04:46:08;95902.94;;;14.78;100.00
8717;BME280;4395;48.554;8.820;2023-07-31T04:48:11;95906.94;;;14.91;100.00
8717;BME280;4395;48.554;8.820;2023-07-31T04:50:14;95909.69;;;14.86;100.00
8717;BME280;4395;48.554;8.820;2023-07-31T04:52:17;95909.69;;;14.86;100.00
8717;BME280;4395;48.554;8.820;2023-07-31T04:54:20;95908.56;;;14.92;100.00
8717;BME280;4395;48.554;8.820;2023-07-31T04:56:25;95899.25;;;15.08;100.00
8717;BME280;4395;48.554;8.820;2023-07-31T04:58:27;95909.03;;;15.04;100.00
8717;BME280;4395;48.554;8.820;2023-07-31T05:00:32;95903.50;;;15.20;100.00
8717;BME280;4395;48.554;8.820;2023-07-31T05:02:34;95903.19;;;15.26;100.00
8717;BME280;4395;48.554;8.820;2023-07-31T05:04:37;95906.28;;;15.09;100.00
8717;BME280;4395;48.554;8.820;2023-07-31T05:06:40;95901.63;;;15.20;100.00
8717;BME280;4395;48.554;8.820;2023-07-31T05:08:43;95903.59;;;15.09;100.00
8717;BME280;4395;48.554;8.820;2023-07-31T05:10:46;95910.72;;;15.34;100.00
8717;BME280;4395;48.554;8.820;2023-07-31T05:12:49;95909.09;;;15.33;100.00
8717;BME280;4395;48.554;8.820;2023-07-31T05:14:51;95903.84;;;15.47;100.00
8717;BME280;4395;48.554;8.820;2023-07-31T05:16:56;95899.25;;;15.48;100.00
8717;BME280;4395;48.554;8.820;2023-07-31T05:18:58;95895.13;;;15.55;100.00
8717;BME280;4395;48.554;8.820;2023-07-31T05:21:01;95893.44;;;15.69;100.00
8717;BME280;4395;48.554;8.820;2023-07-31T05:23:04;95905.59;;;15.72;100.00
8717;BME280;4395;48.554;8.820;2023-07-31T05:25:08;95912.63;;;15.73;100.00
8717;BME280;4395;48.554;8.820;2023-07-31T05:27:11;95908.75;;;15.84;100.00
8717;BME280;4395;48.554;8.820;2023-07-31T05:29:13;95922.19;;;15.65;100.00
8717;BME280;4395;48.554;8.820;2023-07-31T05:31:16;95915.44;;;15.92;100.00
8717;BME280;4395;48.554;8.820;2023-07-31T05:33:20;95909.47;;;15.95;100.00
8717;BME280;4395;48.554;8.820;2023-07-31T05:35:23;95913.63;;;16.11;100.00
8717;BME280;4395;48.554;8.820;2023-07-31T05:37:26;95917.44;;;16.10;100.00
8717;BME280;4395;48.554;8.820;2023-07-31T05:39:29;95904.06;;;16.19;100.00
8717;BME280;4395;48.554;8.820;2023-07-31T05:41:32;95915.16;;;16.22;100.00
8717;BME280;4395;48.554;8.820;2023-07-31T05:43:34;95917.56;;;16.24;100.00
8717;BME280;4395;48.554;8.820;2023-07-31T05:45:37;95921.50;;;16.36;100.00
8717;BME280;4395;48.554;8.820;2023-07-31T05:47:41;95927.50;;;16.33;100.00
8717;BME280;4395;48.554;8.820;2023-07-31T05:49:46;95921.31;;;16.28;100.00
8717;BME280;4395;48.554;8.820;2023-07-31T05:51:48;95914.00;;;16.28;100.00
8717;BME280;4395;48.554;8.820;2023-07-31T05:53:51;95919.91;;;16.06;100.00
8717;BME280;4395;48.554;8.820;2023-07-31T05:55:54;95907.81;;;16.23;100.00
8717;BME280;4395;48.554;8.820;2023-07-31T05:57:57;95906.53;;;16.15;100.00
8717;BME280;4395;48.554;8.820;2023-07-31T06:00:02;95908.28;;;16.30;100.00
8717;BME280;4395;48.554;8.820;2023-07-31T06:02:05;95902.22;;;16.14;100.00
8717;BME280;4395;48.554;8.820;2023-07-31T06:04:08;95893.50;;;16.17;100.00
8717;BME280;4395;48.554;8.820;2023-07-31T06:06:13;95904.19;;;16.32;100.00
8717;BME280;4395;48.554;8.820;2023-07-31T06:08:16;95890.50;;;16.19;100.00
8717;BME280;4395;48.554;8.820;2023-07-31T06:10:18;95894.09;;;16.38;100.00
8717;BME280;4395;48.554;8.820;2023-07-31T06:12:21;95893.34;;;16.32;100.00
8717;BME280;4395;48.554;8.820;2023-07-31T06:14:24;95893.91;;;16.53;100.00
8717;BME280;4395;48.554;8.820;2023-07-31T06:16:27;95893.69;;;16.50;100.00
8717;BME280;4395;48.554;8.820;2023-07-31T06:18:30;95897.03;;;16.65;100.00
8717;BME280;4395;48.554;8.820;2023-07-31T06:20:33;95887.91;;;16.80;100.00
8717;BME280;4395;48.554;8.820;2023-07-31T06:22:37;95889.88;;;16.93;100.00
8717;BME280;4395;48.554;8.820;2023-07-31T06:24:39;95879.91;;;17.08;100.00
8717;BME280;4395;48.554;8.820;2023-07-31T06:26:42;95886.66;;;17.29;100.00
8717;BME280;4395;48.554;8.820;2023-07-31T06:28:45;95890.16;;;17.48;100.00
8717;BME280;4395;48.554;8.820;2023-07-31T06:30:48;95891.69;;;17.54;100.00
8717;BME280;4395;48.554;8.820;2023-07-31T06:32:50;95898.53;;;17.71;100.00
8717;BME280;4395;48.554;8.820;2023-07-31T06:34:53;95891.84;;;17.44;100.00
8717;BME280;4395;48.554;8.820;2023-07-31T06:36:56;95871.69;;;17.31;100.00
8717;BME280;4395;48.554;8.820;2023-07-31T06:39:00;95877.31;;;17.35;100.00
8717;BME280;4395;48.554;8.820;2023-07-31T06:41:03;95882.25;;;17.33;100.00
8717;BME280;4395;48.554;8.820;2023-07-31T06:43:06;95889.81;;;17.36;100.00
8717;BME280;4395;48.554;8.820;2023-07-31T06:45:10;95882.09;;;17.24;100.00
8717;BME280;4395;48.554;8.820;2023-07-31T06:47:13;95899.34;;;17.33;100.00
8717;BME280;4395;48.554;8.820;2023-07-31T06:49:16;95901.25;;;17.33;100.00
8717;BME280;4395;48.554;8.820;2023-07-31T06:51:19;95904.06;;;17.28;100.00
8717;BME280;4395;48.554;8.820;2023-07-31T06:53:21;95900.09;;;17.39;100.00
8717;BME280;4395;48.554;8.820;2023-07-31T06:55:26;95906.53;;;17.43;100.00
8717;BME280;4395;48.554;8.820;2023-07-31T06:57:29;95904.72;;;17.39;100.00
8717;BME280;4395;48.554;8.820;2023-07-31T06:59:31;95909.34;;;17.38;100.00
8717;BME280;4395;48.554;8.820;2023-07-31T07:01:34;95897.81;;;17.27;100.00
8717;BME280;4395;48.554;8.820;2023-07-31T07:03:37;95902.50;;;17.22;100.00
8717;BME280;4395;48.554;8.820;2023-07-31T07:05:40;95902.44;;;17.27;100.00
8717;BME280;4395;48.554;8.820;2023-07-31T07:07:43;95906.03;;;17.41;100.00
8717;BME280;4395;48.554;8.820;2023-07-31T07:09:45;95900.53;;;17.27;100.00
8717;BME280;4395;48.554;8.820;2023-07-31T07:11:50;95900.09;;;17.39;100.00
8717;BME280;4395;48.554;8.820;2023-07-31T07:13:52;95913.81;;;17.48;100.00
8717;BME280;4395;48.554;8.820;2023-07-31T07:15:55;95899.44;;;17.80;100.00
8717;BME280;4395;48.554;8.820;2023-07-31T07:17:58;95891.72;;;17.87;100.00
8717;BME280;4395;48.554;8.820;2023-07-31T07:20:01;95892.47;;;18.06;100.00
8717;BME280;4395;48.554;8.820;2023-07-31T07:22:05;95896.66;;;17.85;100.00
8717;BME280;4395;48.554;8.820;2023-07-31T07:24:08;95893.88;;;17.71;100.00
8717;BME280;4395;48.554;8.820;2023-07-31T07:26:11;95880.53;;;17.88;100.00
8717;BME280;4395;48.554;8.820;2023-07-31T07:28:15;95880.88;;;18.14;100.00
8717;BME280;4395;48.554;8.820;2023-07-31T07:30:17;95886.22;;;18.06;100.00
8717;BME280;4395;48.554;8.820;2023-07-31T07:32:21;95884.41;;;18.01;100.00
8717;BME280;4395;48.554;8.820;2023-07-31T07:34:25;95888.44;;;18.17;100.00
8717;BME280;4395;48.554;8.820;2023-07-31T07:36:28;95884.31;;;18.20;100.00
8717;BME280;4395;48.554;8.820;2023-07-31T07:38:31;95881.53;;;18.39;100.00
8717;BME280;4395;48.554;8.820;2023-07-31T07:40:38;95888.91;;;18.79;99.25
8717;BME280;4395;48.554;8.820;2023-07-31T07:42:41;95890.00;;;18.78;98.34
8717;BME280;4395;48.554;8.820;2023-07-31T07:44:45;95896.94;;;18.98;96.74
8717;BME280;4395;48.554;8.820;2023-07-31T07:46:48;95897.34;;;19.05;95.83
8717;BME280;4395;48.554;8.820;2023-07-31T07:48:51;95879.63;;;18.80;96.57
8717;BME280;4395;48.554;8.820;2023-07-31T07:50:54;95876.00;;;18.71;98.08
8717;BME280;4395;48.554;8.820;2023-07-31T07:52:57;95879.53;;;18.72;98.26
8717;BME280;4395;48.554;8.820;2023-07-31T07:54:59;95874.63;;;19.10;96.86
8717;BME280;4395;48.554;8.820;2023-07-31T07:57:03;95873.22;;;19.35;95.31
8717;BME280;4395;48.554;8.820;2023-07-31T07:59:06;95870.84;;;19.55;93.75
8717;BME280;4395;48.554;8.820;2023-07-31T08:01:09;95877.16;;;19.65;91.83
8717;BME280;4395;48.554;8.820;2023-07-31T08:03:12;95870.72;;;19.61;90.88
8717;BME280;4395;48.554;8.820;2023-07-31T08:05:15;95876.03;;;19.43;92.59
8717;BME280;4395;48.554;8.820;2023-07-31T08:07:19;95860.16;;;19.23;91.94
8717;BME280;4395;48.554;8.820;2023-07-31T08:09:20;95863.78;;;19.54;91.96
8717;BME280;4395;48.554;8.820;2023-07-31T08:11:23;95856.41;;;19.77;90.58
8717;BME280;4395;48.554;8.820;2023-07-31T08:13:25;95859.84;;;19.91;89.12
8717;BME280;4395;48.554;8.820;2023-07-31T08:15:28;95855.56;;;19.99;90.39
8717;BME280;4395;48.554;8.820;2023-07-31T08:17:32;95851.81;;;20.17;89.36
8717;BME280;4395;48.554;8.820;2023-07-31T08:19:35;95854.88;;;20.64;87.65
8717;BME280;4395;48.554;8.820;2023-07-31T08:21:38;95859.84;;;20.53;84.55
8717;BME280;4395;48.554;8.820;2023-07-31T08:23:41;95852.06;;;20.07;86.79
8717;BME280;4395;48.554;8.820;2023-07-31T08:25:45;95860.00;;;20.17;87.65
8717;BME280;4395;48.554;8.820;2023-07-31T08:27:47;95845.06;;;19.84;90.33
8717;BME280;4395;48.554;8.820;2023-07-31T08:29:51;95847.75;;;20.06;89.22
8717;BME280;4395;48.554;8.820;2023-07-31T08:31:54;95861.66;;;19.96;90.96
8717;BME280;4395;48.554;8.820;2023-07-31T08:33:59;95849.06;;;20.17;89.04
8717;BME280;4395;48.554;8.820;2023-07-31T08:36:02;95854.50;;;20.40;87.69
8717;BME280;4395;48.554;8.820;2023-07-31T08:38:04;95854.22;;;20.19;89.95
8717;BME280;4395;48.554;8.820;2023-07-31T08:40:08;95858.19;;;20.44;89.05
8717;BME280;4395;48.554;8.820;2023-07-31T08:42:10;95856.91;;;20.41;86.07
8717;BME280;4395;48.554;8.820;2023-07-31T08:44:14;95852.78;;;20.21;88.08
8717;BME280;4395;48.554;8.820;2023-07-31T08:46:18;95846.75;;;20.02;89.18
8717;BME280;4395;48.554;8.820;2023-07-31T08:48:23;95847.47;;;20.16;87.83
8717;BME280;4395;48.554;8.820;2023-07-31T08:50:28;95850.66;;;20.10;87.46
8717;BME280;4395;48.554;8.820;2023-07-31T08:52:31;95851.81;;;20.17;85.82
8717;BME280;4395;48.554;8.820;2023-07-31T08:54:33;95859.22;;;20.26;87.51
8717;BME280;4395;48.554;8.820;2023-07-31T08:56:36;95855.53;;;20.30;86.88
8717;BME280;4395;48.554;8.820;2023-07-31T08:58:39;95846.03;;;20.59;84.99
8717;BME280;4395;48.554;8.820;2023-07-31T09:00:43;95843.84;;;20.38;86.18
8717;BME280;4395;48.554;8.820;2023-07-31T09:02:48;95837.34;;;20.17;87.79
8717;BME280;4395;48.554;8.820;2023-07-31T09:04:54;95830.19;;;20.30;86.06
8717;BME280;4395;48.554;8.820;2023-07-31T09:07:00;95815.81;;;20.46;84.08
8717;BME280;4395;48.554;8.820;2023-07-31T09:09:04;95816.88;;;20.37;86.19
8717;BME280;4395;48.554;8.820;2023-07-31T09:11:07;95820.34;;;20.60;84.48
8717;BME280;4395;48.554;8.820;2023-07-31T09:13:10;95816.78;;;20.50;85.31
8717;BME280;4395;48.554;8.820;2023-07-31T09:15:13;95826.16;;;20.75;84.39
8717;BME280;4395;48.554;8.820;2023-07-31T09:17:34;95821.88;;;20.92;84.03
8717;BME280;4395;48.554;8.820;2023-07-31T09:19:37;95816.25;;;21.05;81.88
8717;BME280;4395;48.554;8.820;2023-07-31T09:21:47;95814.97;;;21.11;81.25
8717;BME280;4395;48.554;8.820;2023-07-31T09:23:52;95809.84;;;21.10;79.11
8717;BME280;4395;48.554;8.820;2023-07-31T09:25:56;95816.13;;;21.28;77.93
8717;BME280;4395;48.554;8.820;2023-07-31T09:27:59;95831.50;;;20.89;79.83
8717;BME280;4395;48.554;8.820;2023-07-31T09:30:03;95820.22;;;20.73;77.85
8717;BME280;4395;48.554;8.820;2023-07-31T09:32:15;95822.28;;;20.59;79.88
8717;BME280;4395;48.554;8.820;2023-07-31T09:34:19;95809.13;;;20.21;81.35
8717;BME280;4395;48.554;8.820;2023-07-31T09:36:22;95820.03;;;20.21;80.94
8717;BME280;4395;48.554;8.820;2023-07-31T09:38:24;95811.44;;;20.85;78.16
8717;BME280;4395;48.554;8.820;2023-07-31T09:40:30;95803.84;;;20.73;77.73
8717;BME280;4395;48.554;8.820;2023-07-31T09:42:34;95780.81;;;20.48;79.22
8717;BME280;4395;48.554;8.820;2023-07-31T09:44:38;95805.00;;;20.98;78.29
8717;BME280;4395;48.554;8.820;2023-07-31T09:46:42;95795.72;;;21.34;76.55
8717;BME280;4395;48.554;8.820;2023-07-31T09:48:45;95800.84;;;21.53;72.76
8717;BME280;4395;48.554;8.820;2023-07-31T09:50:49;95791.66;;;21.57;72.31
8717;BME280;4395;48.554;8.820;2023-07-31T09:52:52;95792.66;;;21.35;73.36
8717;BME280;4395;48.554;8.820;2023-07-31T09:54:55;95782.97;;;21.64;72.00
8717;BME280;4395;48.554;8.820;2023-07-31T09:57:00;95779.09;;;21.65;73.90
8717;BME280;4395;48.554;8.820;2023-07-31T09:59:04;95783.47;;;21.48;75.39
8717;BME280;4395;48.554;8.820;2023-07-31T10:01:07;95774.56;;;21.77;72.94
8717;BME280;4395;48.554;8.820;2023-07-31T10:03:11;95779.81;;;21.91;71.12
8717;BME280;4395;48.554;8.820;2023-07-31T10:05:15;95761.19;;;22.23;69.87
8717;BME280;4395;48.554;8.820;2023-07-31T10:07:20;95757.72;;;22.13;72.46
8717;BME280;4395;48.554;8.820;2023-07-31T10:09:24;95751.75;;;21.65;75.17
8717;BME280;4395;48.554;8.820;2023-07-31T10:11:30;95750.50;;;22.00;73.45
8717;BME280;4395;48.554;8.820;2023-07-31T10:13:37;95756.25;;;21.61;74.04
8717;BME280;4395;48.554;8.820;2023-07-31T10:15:41;95747.38;;;21.72;74.77
8717;BME280;4395;48.554;8.820;2023-07-31T10:17:46;95749.53;;;21.96;71.15
8717;BME280;4395;48.554;8.820;2023-07-31T10:19:50;95750.38;;;21.88;71.61
8717;BME280;4395;48.554;8.820;2023-07-31T10:21:53;95751.41;;;21.75;73.99
8717;BME280;4395;48.554;8.820;2023-07-31T10:23:58;95751.41;;;21.75;72.25
8717;BME280;4395;48.554;8.820;2023-07-31T10:26:02;95747.09;;;21.57;70.90
8717;BME280;4395;48.554;8.820;2023-07-31T10:28:08;95741.91;;;21.72;73.54
8717;BME280;4395;48.554;8.820;2023-07-31T10:30:15;95752.56;;;21.57;75.35
8717;BME280;4395;48.554;8.820;2023-07-31T10:32:21;95747.97;;;21.31;76.41
8717;BME280;4395;48.554;8.820;2023-07-31T10:34:25;95735.38;;;21.47;75.69
8717;BME280;4395;48.554;8.820;2023-07-31T10:36:28;95742.00;;;21.93;73.68
8717;BME280;4395;48.554;8.820;2023-07-31T10:38:31;95742.00;;;22.31;72.86
8717;BME280;4395;48.554;8.820;2023-07-31T10:40:34;95740.97;;;22.65;68.95
8717;BME280;4395;48.554;8.820;2023-07-31T10:42:45;95722.53;;;22.74;68.33
8717;BME280;4395;48.554;8.820;2023-07-31T10:44:48;95722.56;;;22.95;67.61
8717;BME280;4395;48.554;8.820;2023-07-31T10:46:55;95717.94;;;22.66;70.23
8717;BME280;4395;48.554;8.820;2023-07-31T10:48:59;95721.59;;;22.70;70.19
8717;BME280;4395;48.554;8.820;2023-07-31T10:51:07;95723.13;;;22.59;68.58
8717;BME280;4395;48.554;8.820;2023-07-31T10:53:22;95716.72;;;22.55;68.56
8717;BME280;4395;48.554;8.820;2023-07-31T10:55:28;95708.50;;;23.18;66.98
8717;BME280;4395;48.554;8.820;2023-07-31T10:57:35;95694.94;;;23.54;64.56
8717;BME280;4395;48.554;8.820;2023-07-31T10:59:38;95703.88;;;23.63;64.29
8717;BME280;4395;48.554;8.820;2023-07-31T11:01:50;95708.03;;;23.94;63.03
8717;BME280;4395;48.554;8.820;2023-07-31T11:03:56;95703.06;;;23.63;60.21
8717;BME280;4395;48.554;8.820;2023-07-31T11:06:00;95712.47;;;23.08;67.68
8717;BME280;4395;48.554;8.820;2023-07-31T11:08:10;95712.38;;;23.83;66.35